Time;durP1;ratioP1;P1;durP2;ratioP2;P2;SDS_P1;SDS_P2;PMS_P1;PMS_P2;Temp;Humidity;BMP_temperature;BMP_pressure;BME280_temperature;BME280_humidity;BME280_pressure;Samples;Min_cycle;Max_cycle;Signal;HPM_P1;HPM_P2
2023/03/15 00:01:26;;;;;;;3.83;0.82;;;;;;;;;;6255231;23;20023;-95
2023/03/15 00:04:04;;;;;;;10.30;1.20;;;;;;;;;;6254584;23;20019;-95
2023/03/15 00:06:33;;;;;;;5.13;0.80;;;;;;;;;;6260050;22;20019;-96
2023/03/15 00:09:00;;;;;;;4.28;1.35;;;;;;;;;;6259465;22;20020;-95
2023/03/15 00:11:29;;;;;;;6.43;1.55;;;;;;;;;;6233441;22;20073;-95
2023/03/15 00:14:13;;;;;;;5.88;0.95;;;;;;;;;;6288432;22;20000;-95
2023/03/15 00:16:41;;;;;;;7.30;1.77;;;;;;;;;;6236905;22;20004;-95
2023/03/15 00:19:07;;;;;;;8.98;1.15;;;;;;;;;;6234821;22;20422;-95
2023/03/15 00:21:38;;;;;;;5.43;1.10;;;;;;;;;;6237009;22;20034;-95
2023/03/15 00:24:09;;;;;;;9.73;1.90;;;;;;;;;;6287783;22;20485;-96
2023/03/15 00:26:36;;;;;;;7.18;0.95;;;;;;;;;;6236437;22;20019;-95
2023/03/15 00:29:09;;;;;;;12.07;1.73;;;;;;;;;;6261635;22;19991;-95
2023/03/15 00:31:36;;;;;;;13.43;1.83;;;;;;;;;;6238447;22;20008;-96
2023/03/15 00:34:05;;;;;;;3.08;1.13;;;;;;;;;;6236046;22;20018;-96
2023/03/15 00:36:32;;;;;;;10.45;1.98;;;;;;;;;;6263956;22;20442;-95
2023/03/15 00:38:58;;;;;;;12.38;2.00;;;;;;;;;;6236647;22;20014;-96
2023/03/15 00:41:24;;;;;;;11.40;1.83;;;;;;;;;;6264211;22;19984;-96
2023/03/15 00:43:50;;;;;;;4.90;1.40;;;;;;;;;;6237761;22;20019;-96
2023/03/15 00:46:19;;;;;;;15.20;1.50;;;;;;;;;;6263594;22;20014;-96
2023/03/15 00:48:56;;;;;;;5.25;1.45;;;;;;;;;;6259191;22;20000;-95
2023/03/15 00:51:25;;;;;;;9.10;1.52;;;;;;;;;;6260462;22;20004;-95
2023/03/15 00:53:52;;;;;;;6.95;1.13;;;;;;;;;;6263625;22;20000;-96
2023/03/15 00:56:20;;;;;;;5.60;1.50;;;;;;;;;;6261891;22;20003;-95
2023/03/15 00:58:46;;;;;;;9.23;1.05;;;;;;;;;;6262244;22;20004;-95
2023/03/15 01:01:19;;;;;;;7.18;1.42;;;;;;;;;;6261488;22;20353;-94
2023/03/15 01:04:15;;;;;;;10.15;1.20;;;;;;;;;;6260839;22;20481;-95
2023/03/15 01:06:44;;;;;;;2.63;0.90;;;;;;;;;;6173883;23;20027;-96
2023/03/15 01:09:11;;;;;;;7.10;1.15;;;;;;;;;;6201171;23;20013;-96
2023/03/15 01:11:43;;;;;;;8.95;1.27;;;;;;;;;;6201579;23;20013;-96
2023/03/15 01:14:11;;;;;;;6.15;1.13;;;;;;;;;;6202410;23;20016;-95
2023/03/15 01:16:38;;;;;;;7.53;1.00;;;;;;;;;;6226466;23;20017;-96
2023/03/15 01:19:08;;;;;;;8.60;1.45;;;;;;;;;;6225609;23;20005;-95
2023/03/15 01:21:38;;;;;;;7.53;1.33;;;;;;;;;;6226712;23;20005;-96
2023/03/15 01:24:08;;;;;;;8.45;1.30;;;;;;;;;;6224657;23;20008;-96
2023/03/15 01:26:36;;;;;;;3.40;1.10;;;;;;;;;;6226977;23;20009;-96
2023/03/15 01:29:04;;;;;;;5.72;0.93;;;;;;;;;;6225910;23;20004;-96
2023/03/15 01:31:31;;;;;;;12.40;1.52;;;;;;;;;;6201175;23;20012;-96
2023/03/15 01:33:59;;;;;;;9.43;1.17;;;;;;;;;;6200616;23;20063;-96
2023/03/15 01:36:29;;;;;;;8.68;1.08;;;;;;;;;;6226279;23;20008;-96
2023/03/15 01:38:59;;;;;;;14.20;1.60;;;;;;;;;;6225855;23;20012;-96
2023/03/15 01:41:26;;;;;;;6.07;1.00;;;;;;;;;;6224760;23;20012;-96
2023/03/15 01:43:54;;;;;;;21.25;1.60;;;;;;;;;;6225103;23;20411;-96
2023/03/15 01:46:28;;;;;;;10.85;1.60;;;;;;;;;;6224208;23;20004;-95
2023/03/15 01:49:05;;;;;;;2.80;0.52;;;;;;;;;;6225690;23;20011;-96
2023/03/15 01:51:41;;;;;;;3.97;0.98;;;;;;;;;;6228158;23;19996;-96
2023/03/15 01:54:23;;;;;;;11.75;1.20;;;;;;;;;;6225840;23;20435;-96
2023/03/15 01:56:53;;;;;;;5.78;1.10;;;;;;;;;;6226598;23;20005;-95
2023/03/15 01:59:27;;;;;;;5.40;1.15;;;;;;;;;;6224692;23;20012;-95
2023/03/15 02:01:53;;;;;;;6.70;1.45;;;;;;;;;;6227661;23;20005;-95
2023/03/15 02:04:37;;;;;;;11.32;1.55;;;;;;;;;;6230945;22;20095;-96
2023/03/15 02:07:05;;;;;;;6.10;0.63;;;;;;;;;;6261690;22;20014;-95
2023/03/15 02:09:58;;;;;;;7.63;1.15;;;;;;;;;;6236936;22;20004;-96
2023/03/15 02:12:25;;;;;;;10.23;1.05;;;;;;;;;;6255061;22;20014;-96
2023/03/15 02:14:52;;;;;;;7.28;1.38;;;;;;;;;;6260218;22;20004;-96
2023/03/15 02:17:21;;;;;;;8.52;1.27;;;;;;;;;;6261016;22;20012;-96
2023/03/15 02:19:58;;;;;;;7.53;1.40;;;;;;;;;;6261191;22;20014;-96
2023/03/15 02:22:36;;;;;;;11.18;1.92;;;;;;;;;;6261452;22;20014;-96
2023/03/15 02:25:05;;;;;;;4.65;1.10;;;;;;;;;;6261471;22;20010;-96
2023/03/15 02:27:36;;;;;;;15.45;1.20;;;;;;;;;;6261809;22;20004;-94
2023/03/15 02:30:06;;;;;;;9.60;1.55;;;;;;;;;;6261866;22;20087;-96
2023/03/15 02:32:33;;;;;;;7.00;1.70;;;;;;;;;;6262923;22;20011;-95
2023/03/15 02:35:09;;;;;;;5.82;0.85;;;;;;;;;;6262263;22;20022;-96
2023/03/15 02:37:37;;;;;;;18.58;1.70;;;;;;;;;;6263072;22;20073;-96
2023/03/15 02:40:19;;;;;;;6.30;0.90;;;;;;;;;;6289482;22;20018;-96
2023/03/15 02:42:46;;;;;;;13.82;1.92;;;;;;;;;;6261731;22;20383;-96
2023/03/15 02:45:13;;;;;;;12.23;1.25;;;;;;;;;;6236841;22;20031;-96
2023/03/15 02:47:39;;;;;;;13.07;1.83;;;;;;;;;;6261288;22;20058;-95
2023/03/15 02:50:18;;;;;;;10.55;1.55;;;;;;;;;;6237541;22;20016;-95
2023/03/15 02:52:51;;;;;;;8.07;1.95;;;;;;;;;;6263221;22;20352;-96
2023/03/15 02:55:18;;;;;;;10.70;2.10;;;;;;;;;;6263118;22;20019;-96
2023/03/15 02:58:02;;;;;;;14.40;1.40;;;;;;;;;;6265270;22;20063;-96
2023/03/15 03:00:29;;;;;;;15.45;1.42;;;;;;;;;;6269235;22;19995;-96
2023/03/15 03:02:56;;;;;;;6.38;1.33;;;;;;;;;;6247386;22;19988;-95
2023/03/15 03:11:07;;;;;;;9.13;1.08;;;;;;;;;;6291235;22;20043;-95
2023/03/15 03:13:40;;;;;;;9.10;1.63;;;;;;;;;;6294884;22;20023;-96
2023/03/15 03:16:06;;;;;;;5.22;0.60;;;;;;;;;;6268019;22;19999;-96
2023/03/15 03:19:00;;;;;;;6.63;1.23;;;;;;;;;;6291956;22;20011;-95
2023/03/15 03:21:28;;;;;;;7.45;0.70;;;;;;;;;;6288296;22;20019;-96
2023/03/15 03:23:58;;;;;;;3.40;1.48;;;;;;;;;;6288112;22;20000;-96
2023/03/15 03:26:26;;;;;;;9.80;0.85;;;;;;;;;;6261996;22;20004;-96
2023/03/15 03:28:56;;;;;;;5.32;1.13;;;;;;;;;;6261798;22;20018;-96
2023/03/15 03:31:26;;;;;;;9.43;1.15;;;;;;;;;;6286146;22;20334;-96
2023/03/15 03:33:54;;;;;;;10.73;0.95;;;;;;;;;;6287574;22;20011;-96
2023/03/15 03:36:20;;;;;;;2.15;0.82;;;;;;;;;;6287076;22;20012;-95
2023/03/15 03:39:00;;;;;;;8.43;1.60;;;;;;;;;;6259920;22;20008;-96
2023/03/15 03:41:28;;;;;;;7.88;1.10;;;;;;;;;;6288324;22;20072;-95
2023/03/15 03:43:54;;;;;;;7.90;1.38;;;;;;;;;;6258418;22;20008;-95
2023/03/15 03:46:20;;;;;;;14.82;1.08;;;;;;;;;;6255294;23;20007;-96
2023/03/15 03:48:46;;;;;;;10.23;1.15;;;;;;;;;;6258123;23;20004;-95
2023/03/15 03:51:13;;;;;;;11.93;1.17;;;;;;;;;;6256807;23;20074;-96
2023/03/15 03:53:42;;;;;;;6.18;0.65;;;;;;;;;;6231463;23;20004;-96
2023/03/15 03:56:08;;;;;;;6.55;1.00;;;;;;;;;;6230856;23;20058;-96
2023/03/15 03:58:34;;;;;;;15.75;1.20;;;;;;;;;;6255114;23;20014;-96
2023/03/15 04:01:00;;;;;;;5.18;1.13;;;;;;;;;;6230590;23;20020;-96
2023/03/15 04:03:27;;;;;;;6.25;0.90;;;;;;;;;;6256016;23;20083;-96
2023/03/15 04:05:59;;;;;;;5.22;0.85;;;;;;;;;;6229723;23;20008;-96
2023/03/15 04:08:25;;;;;;;11.70;1.70;;;;;;;;;;6255421;23;20008;-96
2023/03/15 04:10:56;;;;;;;13.73;1.50;;;;;;;;;;6258279;23;20030;-96
2023/03/15 04:13:35;;;;;;;4.68;0.95;;;;;;;;;;6251219;22;20023;-96
2023/03/15 04:16:02;;;;;;;4.00;1.33;;;;;;;;;;6230067;23;20440;-96
2023/03/15 04:18:29;;;;;;;10.98;1.23;;;;;;;;;;6231133;23;20125;-96
2023/03/15 04:20:55;;;;;;;13.27;1.15;;;;;;;;;;6257483;23;20008;-96
2023/03/15 04:23:22;;;;;;;8.55;1.17;;;;;;;;;;6233151;23;20328;-96
2023/03/15 04:25:56;;;;;;;11.70;1.20;;;;;;;;;;6257048;23;20422;-96
2023/03/15 04:28:23;;;;;;;15.52;1.10;;;;;;;;;;6256278;23;19999;-96
2023/03/15 04:30:50;;;;;;;4.18;0.85;;;;;;;;;;6232132;23;20062;-96
2023/03/15 04:33:17;;;;;;;3.65;1.10;;;;;;;;;;6258047;23;20004;-96
2023/03/15 04:35:47;;;;;;;9.45;1.00;;;;;;;;;;6258033;23;20008;-96
2023/03/15 04:38:14;;;;;;;3.58;0.80;;;;;;;;;;6256950;23;20012;-94
2023/03/15 04:40:41;;;;;;;7.32;1.00;;;;;;;;;;6231447;23;20016;-96
2023/03/15 04:43:11;;;;;;;8.73;1.58;;;;;;;;;;6253911;23;20031;-95
2023/03/15 04:45:41;;;;;;;2.75;0.82;;;;;;;;;;6255101;22;20015;-96
2023/03/15 04:48:07;;;;;;;5.55;1.23;;;;;;;;;;6256034;23;20005;-96
2023/03/15 04:50:36;;;;;;;8.82;1.00;;;;;;;;;;6231845;23;20004;-96
2023/03/15 04:53:05;;;;;;;1.23;0.43;;;;;;;;;;6230906;23;20004;-96
2023/03/15 04:55:34;;;;;;;4.80;1.02;;;;;;;;;;6258380;23;20011;-96
2023/03/15 04:58:01;;;;;;;1.77;0.75;;;;;;;;;;6260153;23;20843;-95
2023/03/15 05:00:28;;;;;;;6.18;0.55;;;;;;;;;;6233370;23;20099;-96
2023/03/15 05:02:54;;;;;;;1.45;0.70;;;;;;;;;;6256400;23;20654;-95
2023/03/15 05:05:25;;;;;;;4.15;0.80;;;;;;;;;;6255680;23;20062;-96
2023/03/15 05:07:51;;;;;;;8.90;0.85;;;;;;;;;;6256587;23;20007;-96
2023/03/15 05:10:18;;;;;;;5.93;0.90;;;;;;;;;;6256810;23;20015;-96
2023/03/15 05:12:51;;;;;;;2.85;0.80;;;;;;;;;;6232253;22;20027;-96
2023/03/15 05:15:19;;;;;;;12.70;1.08;;;;;;;;;;6255310;23;20027;-95
2023/03/15 05:17:45;;;;;;;3.55;1.20;;;;;;;;;;6257098;23;20038;-96
2023/03/15 05:20:12;;;;;;;2.90;1.08;;;;;;;;;;6232302;23;20012;-95
2023/03/15 05:22:39;;;;;;;6.60;1.35;;;;;;;;;;6231673;23;20008;-95
2023/03/15 05:25:08;;;;;;;7.20;1.35;;;;;;;;;;6230829;23;20036;-96
2023/03/15 05:27:38;;;;;;;4.68;0.98;;;;;;;;;;6256488;23;20502;-96
2023/03/15 05:30:08;;;;;;;5.57;0.88;;;;;;;;;;6233180;23;20015;-96
2023/03/15 05:32:38;;;;;;;10.88;1.40;;;;;;;;;;6258558;23;20041;-96
2023/03/15 05:35:07;;;;;;;10.18;2.15;;;;;;;;;;6260266;23;20008;-96
2023/03/15 05:37:34;;;;;;;6.20;1.88;;;;;;;;;;6231559;23;20015;-96
2023/03/15 05:40:21;;;;;;;7.13;1.48;;;;;;;;;;6264151;23;20042;-95
2023/03/15 05:42:47;;;;;;;11.23;1.40;;;;;;;;;;6238208;23;20010;-96
2023/03/15 05:45:14;;;;;;;8.88;1.33;;;;;;;;;;6261674;22;20195;-96
2023/03/15 05:47:51;;;;;;;13.18;2.42;;;;;;;;;;6233144;23;20016;-96
2023/03/15 05:50:18;;;;;;;17.23;3.67;;;;;;;;;;6238407;23;20072;-95
2023/03/15 05:52:44;;;;;;;12.45;2.47;;;;;;;;;;6238770;23;20028;-95
2023/03/15 05:55:10;;;;;;;10.40;1.77;;;;;;;;;;6264670;23;20004;-96
2023/03/15 05:57:39;;;;;;;4.45;1.48;;;;;;;;;;6266251;23;20002;-96
2023/03/15 06:00:07;;;;;;;7.55;1.42;;;;;;;;;;6238215;23;20005;-96
2023/03/15 06:02:35;;;;;;;3.92;0.98;;;;;;;;;;6263150;23;20042;-96
2023/03/15 06:05:05;;;;;;;11.20;1.58;;;;;;;;;;6260174;23;20015;-96
2023/03/15 06:07:32;;;;;;;3.53;0.95;;;;;;;;;;6237545;23;20023;-96
2023/03/15 06:09:59;;;;;;;11.05;1.45;;;;;;;;;;6265992;23;20047;-96
2023/03/15 06:12:26;;;;;;;6.50;1.17;;;;;;;;;;6242358;22;20004;-96
2023/03/15 06:14:52;;;;;;;8.80;0.95;;;;;;;;;;6267355;22;20170;-96
2023/03/15 06:17:18;;;;;;;18.92;1.85;;;;;;;;;;6266538;23;20035;-96
2023/03/15 06:19:49;;;;;;;10.55;1.58;;;;;;;;;;6263235;22;20332;-96
2023/03/15 06:22:19;;;;;;;17.95;1.25;;;;;;;;;;6259221;23;20005;-96
2023/03/15 06:24:53;;;;;;;6.05;0.98;;;;;;;;;;6236047;23;20011;-96
2023/03/15 06:27:20;;;;;;;7.93;1.55;;;;;;;;;;6233938;23;20036;-96
2023/03/15 06:29:53;;;;;;;8.85;1.48;;;;;;;;;;6232262;23;20012;-96
2023/03/15 06:32:30;;;;;;;7.40;1.33;;;;;;;;;;6233721;23;20098;-96
2023/03/15 06:34:56;;;;;;;3.03;0.77;;;;;;;;;;6237260;23;20007;-94
2023/03/15 06:37:29;;;;;;;3.65;0.88;;;;;;;;;;6240002;23;20019;-95
2023/03/15 06:39:56;;;;;;;9.48;1.90;;;;;;;;;;6240550;23;20027;-96
2023/03/15 06:42:30;;;;;;;6.03;0.73;;;;;;;;;;6241979;22;20012;-95
2023/03/15 06:45:00;;;;;;;9.77;1.90;;;;;;;;;;6264763;22;20011;-96
2023/03/15 06:47:26;;;;;;;14.27;1.63;;;;;;;;;;6267580;22;20020;-96
2023/03/15 06:49:56;;;;;;;7.07;1.30;;;;;;;;;;6266994;22;20004;-96
2023/03/15 06:52:28;;;;;;;8.52;1.63;;;;;;;;;;6240970;23;20014;-96
2023/03/15 06:54:57;;;;;;;10.98;1.98;;;;;;;;;;6236893;23;20027;-96
2023/03/15 06:57:31;;;;;;;10.75;2.15;;;;;;;;;;6263217;23;19996;-96
2023/03/15 07:00:02;;;;;;;2.17;0.60;;;;;;;;;;6264773;23;20008;-96
2023/03/15 07:02:36;;;;;;;14.80;1.08;;;;;;;;;;6234490;23;20031;-96
2023/03/15 07:05:02;;;;;;;7.75;1.00;;;;;;;;;;6258206;23;20345;-96
2023/03/15 07:07:32;;;;;;;2.90;1.08;;;;;;;;;;6256834;23;20000;-96
2023/03/15 07:10:05;;;;;;;8.13;1.45;;;;;;;;;;6231040;23;20004;-96
2023/03/15 07:12:55;;;;;;;5.38;0.90;;;;;;;;;;6237245;22;20031;-95
2023/03/15 07:15:34;;;;;;;10.85;1.65;;;;;;;;;;6231145;23;20257;-95
2023/03/15 07:18:04;;;;;;;3.60;1.23;;;;;;;;;;6233459;23;20012;-95
2023/03/15 07:20:55;;;;;;;5.22;1.25;;;;;;;;;;6256026;23;20008;-95
2023/03/15 07:23:41;;;;;;;5.45;1.48;;;;;;;;;;6257629;23;20000;-95
2023/03/15 07:26:26;;;;;;;2.67;0.90;;;;;;;;;;6231297;23;20048;-95
2023/03/15 07:28:53;;;;;;;15.50;1.75;;;;;;;;;;6257677;23;20004;-96
2023/03/15 07:31:19;;;;;;;4.45;1.58;;;;;;;;;;6257961;23;20012;-95
2023/03/15 07:33:47;;;;;;;12.98;1.40;;;;;;;;;;6255811;23;20043;-95
2023/03/15 07:36:15;;;;;;;6.00;1.23;;;;;;;;;;6230624;23;20012;-96
2023/03/15 07:38:45;;;;;;;2.85;1.20;;;;;;;;;;6256342;23;20012;-96
2023/03/15 07:41:14;;;;;;;6.43;1.52;;;;;;;;;;6231481;23;20035;-96
2023/03/15 07:43:41;;;;;;;6.65;0.82;;;;;;;;;;6256884;23;20031;-96
2023/03/15 07:46:07;;;;;;;5.50;1.55;;;;;;;;;;6235557;23;20008;-96
2023/03/15 07:48:33;;;;;;;7.55;1.60;;;;;;;;;;6235600;23;20473;-96
2023/03/15 07:50:59;;;;;;;4.68;1.23;;;;;;;;;;6234860;23;20020;-96
2023/03/15 07:53:41;;;;;;;9.65;0.73;;;;;;;;;;6235331;23;20107;-96
2023/03/15 07:56:07;;;;;;;12.48;1.73;;;;;;;;;;6261126;23;20079;-96
2023/03/15 07:58:33;;;;;;;11.13;1.52;;;;;;;;;;6260424;23;20012;-96
2023/03/15 08:01:20;;;;;;;14.52;1.45;;;;;;;;;;6259951;23;20008;-95
2023/03/15 08:03:47;;;;;;;7.22;1.77;;;;;;;;;;6257563;23;20027;-96
2023/03/15 08:06:17;;;;;;;17.13;2.58;;;;;;;;;;6235095;23;20104;-96
2023/03/15 08:08:46;;;;;;;4.45;1.35;;;;;;;;;;6259023;23;20004;-96
2023/03/15 08:11:17;;;;;;;9.20;1.67;;;;;;;;;;6256915;23;20000;-96
2023/03/15 08:13:51;;;;;;;7.03;1.90;;;;;;;;;;6274401;22;20008;-95
2023/03/15 08:16:30;;;;;;;4.53;1.13;;;;;;;;;;6270087;22;20024;-95
2023/03/15 08:18:57;;;;;;;10.07;2.35;;;;;;;;;;6264439;22;20011;-95
2023/03/15 08:21:23;;;;;;;5.32;1.45;;;;;;;;;;6240813;22;20015;-95
2023/03/15 08:23:52;;;;;;;6.13;1.50;;;;;;;;;;6265700;22;19996;-96
2023/03/15 08:26:43;;;;;;;5.72;0.95;;;;;;;;;;6243015;22;20383;-96
2023/03/15 08:29:25;;;;;;;;;;;;;;;;;;;;;
2023/03/15 08:31:51;;;;;;;4.63;1.42;;;;;;;;;;6293674;22;20003;-96
2023/03/15 08:34:28;;;;;;;6.80;1.75;;;;;;;;;;6203485;23;20015;-96
2023/03/15 08:36:54;;;;;;;8.63;1.70;;;;;;;;;;6180539;23;20008;-96
2023/03/15 08:39:22;;;;;;;4.90;1.15;;;;;;;;;;6201684;23;20017;-96
2023/03/15 08:45:08;;;;;;;8.20;1.70;;;;;;;;;;6141805;23;20313;-96
2023/03/15 08:47:39;;;;;;;8.80;1.80;;;;;;;;;;6139470;23;20034;-96
2023/03/15 08:50:30;;;;;;;;;;;;;;;;;;;;;
2023/03/15 08:55:56;;;;;;;5.78;1.60;;;;;;;;;;6207923;23;20051;-96
2023/03/15 09:01:11;;;;;;;;;;;;;;;;;;6213943;23;20019;-96
2023/03/15 09:03:56;;;;;;;5.78;1.50;;;;;;;;;;6234737;23;19904;-96
2023/03/15 09:06:30;;;;;;;4.40;1.50;;;;;;;;;;6185900;23;20383;-95
2023/03/15 09:11:40;;;;;;;7.38;1.45;;;;;;;;;;6287450;22;20074;-93
2023/03/15 09:14:07;;;;;;;8.02;1.70;;;;;;;;;;6260888;22;20007;-91
2023/03/15 09:16:33;;;;;;;11.98;1.65;;;;;;;;;;6252416;22;20030;-93
2023/03/15 09:18:59;;;;;;;4.25;1.30;;;;;;;;;;6228700;22;20094;-92
2023/03/15 09:21:26;;;;;;;7.30;1.35;;;;;;;;;;6228769;22;20196;-92
2023/03/15 09:23:53;;;;;;;3.75;1.20;;;;;;;;;;6255750;22;20392;-92
2023/03/15 09:26:19;;;;;;;14.18;1.45;;;;;;;;;;6230876;22;20386;-90
2023/03/15 09:28:46;;;;;;;8.23;1.63;;;;;;;;;;6258041;22;20038;-92
2023/03/15 09:31:16;;;;;;;7.00;1.42;;;;;;;;;;6256315;22;20110;-91
2023/03/15 09:33:45;;;;;;;12.88;1.40;;;;;;;;;;6253663;22;20003;-93
2023/03/15 09:36:32;;;;;;;9.43;1.75;;;;;;;;;;6258511;22;20019;-93
2023/03/15 09:39:03;;;;;;;9.50;1.58;;;;;;;;;;6262703;22;20068;-91
2023/03/15 09:41:41;;;;;;;8.50;1.55;;;;;;;;;;6255580;22;20011;-92
2023/03/15 09:44:16;;;;;;;3.22;1.30;;;;;;;;;;6255397;22;20007;-92
2023/03/15 09:47:01;;;;;;;9.88;1.20;;;;;;;;;;6257335;22;20023;-92
2023/03/15 09:49:47;;;;;;;8.77;1.58;;;;;;;;;;6258906;22;20393;-91
2023/03/15 09:52:27;;;;;;;9.95;2.03;;;;;;;;;;6258114;22;20015;-92
2023/03/15 09:58:33;;;;;;;;;;;;;;;;;;;;;
2023/03/15 10:01:47;;;;;;;;;;;;;;;;;;;;;
2023/03/15 10:04:40;;;;;;;3.47;1.10;;;;;;;;;;6268165;23;20011;-93
2023/03/15 10:07:18;;;;;;;5.35;1.67;;;;;;;;;;6233472;23;20012;-93
2023/03/15 10:09:57;;;;;;;4.38;1.40;;;;;;;;;;6241864;23;20015;-92
2023/03/15 10:12:54;;;;;;;5.35;1.60;;;;;;;;;;6219702;22;20024;-93
2023/03/15 10:15:43;;;;;;;4.60;1.48;;;;;;;;;;6214007;23;20028;-91
2023/03/15 10:21:36;;;;;;;2.55;1.35;;;;;;;;;;6118311;23;20086;-89
2023/03/15 10:24:27;;;;;;;8.02;1.52;;;;;;;;;;6094520;23;20018;-93
2023/03/15 10:27:31;;;;;;;4.32;2.03;;;;;;;;;;6105747;23;20006;-91
2023/03/15 10:49:45;;;;;;;6.03;1.75;;;;;;;;;;5814597;24;20033;-92
2023/03/15 10:52:44;;;;;;;10.85;2.35;;;;;;;;;;5805815;24;20012;-93
2023/03/15 10:58:31;;;;;;;3.05;1.70;;;;;;;;;;5826533;24;20139;-92
2023/03/15 11:01:13;;;;;;;4.50;1.33;;;;;;;;;;5963099;23;20020;-92
2023/03/15 11:03:43;;;;;;;3.53;1.42;;;;;;;;;;6151586;23;20008;-91
2023/03/15 11:06:25;;;;;;;5.10;1.95;;;;;;;;;;6226621;23;20366;-92
2023/03/15 11:08:52;;;;;;;4.63;1.95;;;;;;;;;;6227767;23;20070;-92
2023/03/15 11:11:38;;;;;;;7.50;1.90;;;;;;;;;;6206135;23;20016;-92
2023/03/15 11:14:18;;;;;;;16.27;2.10;;;;;;;;;;6229165;22;20016;-92
2023/03/15 11:16:46;;;;;;;8.75;2.38;;;;;;;;;;6251241;23;20338;-92
2023/03/15 11:19:15;;;;;;;10.52;1.83;;;;;;;;;;6223621;23;20007;-92
2023/03/15 11:21:48;;;;;;;6.90;1.83;;;;;;;;;;6227356;23;20000;-92
2023/03/15 11:24:22;;;;;;;7.93;1.85;;;;;;;;;;6226584;23;20011;-92
2023/03/15 11:26:52;;;;;;;4.05;1.90;;;;;;;;;;6227120;23;20008;-91
2023/03/15 11:29:21;;;;;;;5.07;1.77;;;;;;;;;;6199598;23;20083;-92
2023/03/15 11:31:48;;;;;;;2.53;0.82;;;;;;;;;;6223114;23;20000;-93
2023/03/15 11:34:26;;;;;;;8.02;1.83;;;;;;;;;;6225155;23;20004;-92
2023/03/15 11:36:55;;;;;;;4.90;1.45;;;;;;;;;;6223093;23;20008;-91
2023/03/15 11:39:43;;;;;;;5.63;1.17;;;;;;;;;;6222954;23;20009;-93
2023/03/15 11:42:21;;;;;;;11.73;1.92;;;;;;;;;;6225707;23;20485;-92
2023/03/15 11:44:49;;;;;;;5.78;2.20;;;;;;;;;;6225727;23;20000;-92
2023/03/15 11:47:22;;;;;;;10.45;1.90;;;;;;;;;;6229959;23;20334;-92
2023/03/15 11:49:53;;;;;;;5.90;1.60;;;;;;;;;;6230290;23;20464;-93
2023/03/15 11:52:46;;;;;;;8.13;2.15;;;;;;;;;;6229844;23;20039;-92
2023/03/15 11:55:23;;;;;;;9.35;1.48;;;;;;;;;;6253871;23;20091;-92
2023/03/15 11:57:58;;;;;;;4.55;1.98;;;;;;;;;;6230867;23;20034;-93
2023/03/15 12:00:51;;;;;;;6.82;1.38;;;;;;;;;;6231977;23;20015;-92
2023/03/15 12:03:51;;;;;;;10.90;2.25;;;;;;;;;;6231965;23;19992;-92
2023/03/15 12:06:17;;;;;;;9.02;1.70;;;;;;;;;;6167287;23;20008;-91
2023/03/15 12:08:49;;;;;;;9.60;2.03;;;;;;;;;;6233021;23;20000;-93
2023/03/15 12:11:35;;;;;;;5.28;1.70;;;;;;;;;;6230937;23;20338;-91
2023/03/15 12:14:31;;;;;;;5.28;1.70;;;;;;;;;;6233077;22;20020;-93
2023/03/15 12:17:23;;;;;;;3.42;1.23;;;;;;;;;;6232451;23;20012;-92
2023/03/15 12:20:08;;;;;;;4.60;1.75;;;;;;;;;;6228259;23;20027;-92
2023/03/15 12:22:35;;;;;;;7.53;1.50;;;;;;;;;;6230657;23;20000;-92
2023/03/15 12:25:20;;;;;;;11.68;1.30;;;;;;;;;;6200074;23;20008;-92
2023/03/15 12:27:48;;;;;;;6.43;1.35;;;;;;;;;;6224154;23;20441;-93
2023/03/15 12:30:23;;;;;;;4.85;1.40;;;;;;;;;;6225344;23;20014;-93
2023/03/15 12:32:51;;;;;;;6.30;1.60;;;;;;;;;;6229521;23;20004;-92
2023/03/15 12:35:19;;;;;;;3.45;1.40;;;;;;;;;;6227555;23;20008;-92
2023/03/15 12:37:46;;;;;;;4.35;1.25;;;;;;;;;;6228153;23;20016;-92
2023/03/15 12:40:21;;;;;;;5.72;1.40;;;;;;;;;;6225894;23;20004;-91
2023/03/15 12:42:47;;;;;;;8.13;1.23;;;;;;;;;;6226066;23;20004;-91
2023/03/15 12:45:16;;;;;;;11.15;1.67;;;;;;;;;;6227886;23;20011;-90
2023/03/15 12:47:55;;;;;;;2.90;1.52;;;;;;;;;;6228403;23;20007;-91
2023/03/15 12:50:40;;;;;;;11.75;1.98;;;;;;;;;;6226248;23;20067;-91
2023/03/15 12:53:12;;;;;;;5.20;1.42;;;;;;;;;;6226000;23;20446;-92
2023/03/15 12:55:39;;;;;;;3.03;1.15;;;;;;;;;;6228235;23;20058;-91
2023/03/15 12:58:10;;;;;;;9.30;2.40;;;;;;;;;;6230415;23;20008;-92
2023/03/15 13:00:37;;;;;;;5.25;1.67;;;;;;;;;;6231020;23;20324;-92
2023/03/15 13:03:06;;;;;;;3.22;1.63;;;;;;;;;;6206304;23;20035;-91
2023/03/15 13:05:51;;;;;;;7.10;1.63;;;;;;;;;;6225215;23;20031;-91
2023/03/15 13:08:25;;;;;;;8.32;1.52;;;;;;;;;;6228268;23;20011;-91
2023/03/15 13:11:10;;;;;;;4.28;0.98;;;;;;;;;;6229900;23;20023;-95
2023/03/15 13:13:39;;;;;;;6.85;1.60;;;;;;;;;;6231137;22;20008;-95
2023/03/15 13:16:06;;;;;;;4.90;1.75;;;;;;;;;;6226799;23;20138;-94
2023/03/15 13:18:36;;;;;;;4.68;1.65;;;;;;;;;;6226313;23;20055;-95
2023/03/15 13:21:07;;;;;;;10.35;1.83;;;;;;;;;;6198969;23;20012;-93
2023/03/15 13:23:33;;;;;;;5.65;2.05;;;;;;;;;;6228946;23;20004;-96
2023/03/15 13:26:11;;;;;;;7.43;1.45;;;;;;;;;;6199543;23;20016;-95
2023/03/15 13:28:39;;;;;;;4.97;1.25;;;;;;;;;;6226363;23;20062;-94
2023/03/15 13:31:17;;;;;;;5.97;1.40;;;;;;;;;;6225613;23;20004;-95
2023/03/15 13:33:46;;;;;;;2.92;1.85;;;;;;;;;;6221701;23;20015;-94
2023/03/15 13:36:22;;;;;;;9.20;1.50;;;;;;;;;;6197506;23;20019;-95
2023/03/15 13:38:48;;;;;;;;;;;;;;;;;;6223558;23;20070;-96
2023/03/15 13:41:16;;;;;;;3.72;1.63;;;;;;;;;;6224149;23;19903;-96
2023/03/15 13:43:43;;;;;;;8.73;1.25;;;;;;;;;;6201120;23;20091;-96
2023/03/15 13:49:30;;;;;;;7.30;1.30;;;;;;;;;;6197393;23;20559;-93
2023/03/15 13:51:57;;;;;;;5.55;1.30;;;;;;;;;;6223829;23;20015;-95
2023/03/15 13:54:26;;;;;;;7.38;1.38;;;;;;;;;;6224557;23;20015;-96
2023/03/15 13:56:58;;;;;;;7.75;1.42;;;;;;;;;;6225404;23;20062;-96
2023/03/15 13:59:34;;;;;;;5.53;1.67;;;;;;;;;;6225231;22;20012;-96
2023/03/15 14:02:01;;;;;;;7.95;1.60;;;;;;;;;;6222827;23;20415;-96
2023/03/15 14:04:28;;;;;;;9.57;1.45;;;;;;;;;;6225341;23;20034;-96
2023/03/15 14:07:17;;;;;;;7.57;2.20;;;;;;;;;;6222188;23;20525;-95
2023/03/15 14:09:44;;;;;;;6.00;1.27;;;;;;;;;;6166893;23;20063;-96
2023/03/15 14:12:21;;;;;;;8.73;1.15;;;;;;;;;;6197157;23;20074;-96
2023/03/15 14:14:52;;;;;;;18.63;1.45;;;;;;;;;;6221277;22;20023;-96
2023/03/15 14:17:22;;;;;;;6.95;1.15;;;;;;;;;;6221218;23;20012;-95
2023/03/15 14:20:07;;;;;;;5.88;1.40;;;;;;;;;;6220524;23;20004;-96
2023/03/15 14:22:41;;;;;;;5.10;1.40;;;;;;;;;;6222626;23;20011;-96
2023/03/15 14:25:21;;;;;;;4.97;1.35;;;;;;;;;;6221949;23;20225;-95
2023/03/15 14:27:58;;;;;;;5.55;1.35;;;;;;;;;;6221764;23;20352;-95
2023/03/15 14:30:28;;;;;;;8.50;1.83;;;;;;;;;;6219988;23;20035;-95
2023/03/15 14:33:23;;;;;;;5.40;1.42;;;;;;;;;;6222693;23;20434;-96
2023/03/15 14:35:54;;;;;;;5.00;1.30;;;;;;;;;;6200155;23;20008;-96
2023/03/15 14:38:25;;;;;;;2.70;0.80;;;;;;;;;;6221563;23;20004;-95
2023/03/15 14:40:54;;;;;;;5.55;1.20;;;;;;;;;;6196454;23;20091;-96
2023/03/15 14:43:23;;;;;;;4.68;1.30;;;;;;;;;;6195522;23;20047;-96
2023/03/15 14:45:56;;;;;;;8.00;1.40;;;;;;;;;;6196099;23;20012;-96
2023/03/15 14:48:30;;;;;;;6.50;1.80;;;;;;;;;;6195746;23;20012;-96
2023/03/15 14:50:57;;;;;;;6.25;1.30;;;;;;;;;;6220646;23;20036;-96
2023/03/15 14:53:30;;;;;;;5.00;1.35;;;;;;;;;;6195971;23;20012;-96
2023/03/15 14:55:57;;;;;;;11.25;1.40;;;;;;;;;;6222017;23;20008;-96
2023/03/15 14:58:23;;;;;;;7.40;1.48;;;;;;;;;;6221163;23;20346;-96
2023/03/15 15:00:52;;;;;;;11.93;1.05;;;;;;;;;;6218510;23;20004;-93
2023/03/15 15:03:26;;;;;;;7.00;1.25;;;;;;;;;;6195627;23;20012;-96
2023/03/15 15:09:26;;;;;;;17.48;2.67;;;;;;;;;;6244646;23;20061;-95
2023/03/15 15:15:15;;;;;;;11.02;1.60;;;;;;;;;;6101247;23;20085;-95
2023/03/15 15:18:03;;;;;;;7.65;1.25;;;;;;;;;;6219535;23;20019;-96
2023/03/15 15:23:49;;;;;;;;;;;;;;;;;;;;;
2023/03/15 15:26:28;;;;;;;4.50;1.45;;;;;;;;;;6249404;23;20032;-96
2023/03/15 15:29:01;;;;;;;5.82;1.35;;;;;;;;;;6220260;23;20024;-96
2023/03/15 15:32:04;;;;;;;;;;;;;;;;;;;;;
2023/03/15 15:34:32;;;;;;;3.30;1.33;;;;;;;;;;6201344;23;20595;-96
2023/03/15 15:37:21;;;;;;;6.18;1.42;;;;;;;;;;6195171;23;20022;-96
2023/03/15 15:39:47;;;;;;;4.68;1.05;;;;;;;;;;6221946;23;20438;-96
2023/03/15 15:42:19;;;;;;;5.65;1.55;;;;;;;;;;6195060;23;20470;-95
2023/03/15 15:44:46;;;;;;;9.55;1.58;;;;;;;;;;6195534;23;20069;-96
2023/03/15 15:47:12;;;;;;;2.95;1.00;;;;;;;;;;6222077;23;20068;-96
2023/03/15 15:49:43;;;;;;;1.63;0.80;;;;;;;;;;6220233;23;20038;-96
2023/03/15 15:52:30;;;;;;;10.95;1.85;;;;;;;;;;6197450;23;20335;-95
2023/03/15 15:54:56;;;;;;;7.15;1.67;;;;;;;;;;6220866;23;20136;-96
2023/03/15 15:57:25;;;;;;;13.40;1.35;;;;;;;;;;6219880;23;20050;-96
2023/03/15 15:59:54;;;;;;;3.88;1.38;;;;;;;;;;6223150;23;20016;-96
2023/03/15 16:02:30;;;;;;;9.93;1.95;;;;;;;;;;6197318;23;20023;-96
2023/03/15 16:04:56;;;;;;;14.40;1.77;;;;;;;;;;6221457;23;20010;-96
2023/03/15 16:07:23;;;;;;;9.07;1.80;;;;;;;;;;6223226;23;20501;-96
2023/03/15 16:09:51;;;;;;;7.63;1.90;;;;;;;;;;6197815;23;20019;-95
2023/03/15 16:12:20;;;;;;;6.38;1.40;;;;;;;;;;6225342;23;20058;-96
2023/03/15 16:14:47;;;;;;;10.50;1.60;;;;;;;;;;6226276;23;20027;-96
2023/03/15 16:17:20;;;;;;;8.90;1.65;;;;;;;;;;6202506;22;20482;-96